createdAt,value
2023-09-14T00:01:29.155Z,42.67
2023-09-14T00:04:35.519Z,29.52
2023-09-14T00:07:43.366Z,32.03
2023-09-14T00:10:49.918Z,24.32
2023-09-14T00:13:56.618Z,24.18
2023-09-14T00:17:03.492Z,25.30
2023-09-14T00:20:09.326Z,19.48
2023-09-14T00:23:15.279Z,21.73
2023-09-14T00:26:22.206Z,26.00
2023-09-14T00:29:27.522Z,25.25
2023-09-14T00:32:32.482Z,25.95
2023-09-14T00:35:39.945Z,19.37
2023-09-14T00:38:46.635Z,25.40
2023-09-14T00:41:53.194Z,16.23
2023-09-14T00:44:59.976Z,19.17
2023-09-14T00:48:10.099Z,20.60
2023-09-14T00:51:18.148Z,27.27
2023-09-14T00:54:24.510Z,19.42
2023-09-14T00:57:31.885Z,18.30
2023-09-14T01:00:39.153Z,18.15
2023-09-14T01:03:45.153Z,19.65
2023-09-14T01:06:52.051Z,24.65
2023-09-14T01:09:58.502Z,17.27
2023-09-14T01:13:07.253Z,19.80
2023-09-14T01:16:33.373Z,16.67
2023-09-14T01:19:58.667Z,15.40
2023-09-14T01:23:18.336Z,16.20
2023-09-14T01:26:23.896Z,17.00
2023-09-14T01:29:30.568Z,19.37
2023-09-14T01:32:36.565Z,19.55
2023-09-14T01:35:45.667Z,16.73
2023-09-14T01:38:50.801Z,20.50
2023-09-14T01:41:58.191Z,17.05
2023-09-14T01:45:05.469Z,15.43
2023-09-14T01:48:12.362Z,18.15
2023-09-14T01:51:18.418Z,16.45
2023-09-14T01:54:23.898Z,15.98
2023-09-14T01:57:28.910Z,16.97
2023-09-14T02:00:34.693Z,14.23
2023-09-14T02:03:40.824Z,16.57
2023-09-14T02:06:48.269Z,19.02
2023-09-14T02:09:54.583Z,19.67
2023-09-14T02:13:01.283Z,19.45
2023-09-14T02:16:08.200Z,14.65
2023-09-14T02:19:15.447Z,18.45
2023-09-14T02:22:22.518Z,16.30
2023-09-14T02:25:29.417Z,16.82
2023-09-14T02:28:35.559Z,19.67
2023-09-14T02:31:41.982Z,19.65
2023-09-14T02:34:49.227Z,15.53
2023-09-14T02:37:56.619Z,17.82
2023-09-14T02:41:01.764Z,14.65
2023-09-14T02:44:08.731Z,16.48
2023-09-14T02:47:15.192Z,19.25
2023-09-14T02:50:21.684Z,14.98
2023-09-14T02:53:28.869Z,15.95
2023-09-14T02:56:35.537Z,17.40
2023-09-14T02:59:41.300Z,15.58
2023-09-14T03:02:48.739Z,17.62
2023-09-14T03:05:56.584Z,16.30
2023-09-14T03:09:03.764Z,18.17
2023-09-14T03:12:11.099Z,18.70
2023-09-14T03:15:17.594Z,19.77
2023-09-14T03:18:23.797Z,14.70
2023-09-14T03:21:43.944Z,21.33
2023-09-14T03:24:50.622Z,12.53
2023-09-14T03:27:57.481Z,18.57
2023-09-14T03:31:03.802Z,22.90
2023-09-14T03:34:10.315Z,17.65
2023-09-14T03:37:16.958Z,19.07
2023-09-14T03:40:22.923Z,17.60
2023-09-14T03:43:29.908Z,21.75
2023-09-14T03:46:36.383Z,21.17
2023-09-14T03:49:43.362Z,25.68
2023-09-14T03:52:50.051Z,28.35
2023-09-14T03:55:56.214Z,22.13
2023-09-14T03:59:04.516Z,22.67
2023-09-14T04:02:11.195Z,24.95
2023-09-14T04:05:30.762Z,20.65
2023-09-14T04:08:37.759Z,22.62
2023-09-14T04:11:42.785Z,20.65
2023-09-14T04:14:52.661Z,23.67
2023-09-14T04:17:59.343Z,23.77
2023-09-14T04:21:06.646Z,38.30
2023-09-14T04:24:12.699Z,30.60
2023-09-14T04:27:18.492Z,25.00
2023-09-14T04:30:24.671Z,23.50
2023-09-14T04:33:31.422Z,20.75
2023-09-14T04:36:39.107Z,22.73
2023-09-14T04:39:46.184Z,27.25
2023-09-14T04:42:51.453Z,19.23
2023-09-14T04:46:00.551Z,17.92
2023-09-14T04:49:07.354Z,17.73
2023-09-14T04:52:12.473Z,25.55
2023-09-14T04:55:18.708Z,18.55
2023-09-14T04:58:26.750Z,26.55
2023-09-14T05:01:33.360Z,21.48
2023-09-14T05:04:41.013Z,25.60
2023-09-14T05:07:48.862Z,20.82
2023-09-14T05:10:57.103Z,24.50
2023-09-14T05:14:03.353Z,19.95
2023-09-14T05:17:08.708Z,23.92
2023-09-14T05:20:16.701Z,16.20
2023-09-14T05:23:22.966Z,17.70
2023-09-14T05:26:27.929Z,16.37
2023-09-14T05:29:34.232Z,18.35
2023-09-14T05:32:39.640Z,19.02
2023-09-14T05:35:46.644Z,13.88
2023-09-14T05:38:54.839Z,18.30
2023-09-14T05:42:00.006Z,19.42
2023-09-14T05:45:06.080Z,13.32
2023-09-14T05:48:15.973Z,17.42
2023-09-14T05:51:21.799Z,15.32
2023-09-14T05:54:28.290Z,14.83
2023-09-14T05:57:33.893Z,16.60
2023-09-14T06:00:40.454Z,14.98
2023-09-14T06:03:47.595Z,13.72
2023-09-14T06:06:54.673Z,14.43
2023-09-14T06:10:01.249Z,17.02
2023-09-14T06:13:07.403Z,14.70
2023-09-14T06:16:13.701Z,11.15
2023-09-14T06:19:20.562Z,18.05
2023-09-14T06:22:27.303Z,13.38
2023-09-14T06:25:33.749Z,15.13
2023-09-14T06:28:40.097Z,17.70
2023-09-14T06:31:46.128Z,11.43
2023-09-14T06:34:51.708Z,11.95
2023-09-14T06:37:57.555Z,12.13
2023-09-14T06:41:04.185Z,11.88
2023-09-14T06:44:13.253Z,12.50
2023-09-14T06:47:19.046Z,13.78
2023-09-14T06:50:25.370Z,15.38
2023-09-14T06:53:31.448Z,12.20
2023-09-14T06:56:37.719Z,10.00
2023-09-14T06:59:43.545Z,12.80
2023-09-14T07:02:49.400Z,12.70
2023-09-14T07:05:56.527Z,10.82
2023-09-14T07:09:05.543Z,18.62
2023-09-14T07:12:14.583Z,11.43
2023-09-14T07:15:21.175Z,9.95
2023-09-14T07:18:45.287Z,9.15
2023-09-14T07:21:51.514Z,14.20
2023-09-14T07:24:58.807Z,12.65
2023-09-14T07:28:05.719Z,21.12
2023-09-14T07:31:12.549Z,11.88
2023-09-14T07:34:19.828Z,10.90
2023-09-14T07:37:27.637Z,13.72
2023-09-14T07:40:33.713Z,10.72
2023-09-14T07:43:41.530Z,13.68
2023-09-14T07:46:48.198Z,13.43
2023-09-14T07:49:55.412Z,15.45
2023-09-14T07:53:00.717Z,16.45
2023-09-14T07:56:08.099Z,11.25
2023-09-14T07:59:07.139Z,10.75
2023-09-14T08:02:16.739Z,11.68
2023-09-14T08:05:23.865Z,11.68
2023-09-14T08:08:29.859Z,16.40
2023-09-14T08:11:35.464Z,9.58
2023-09-14T08:14:43.706Z,10.20
2023-09-14T08:17:49.152Z,10.55
2023-09-14T08:20:56.044Z,12.50
2023-09-14T08:24:04.783Z,9.73
2023-09-14T08:27:10.510Z,11.73
2023-09-14T08:30:19.834Z,8.88
2023-09-14T08:33:25.877Z,8.00
2023-09-14T08:36:34.190Z,10.35
2023-09-14T08:39:39.131Z,11.53
2023-09-14T08:42:48.458Z,13.98
2023-09-14T08:45:54.411Z,9.10
2023-09-14T08:49:01.595Z,13.05
2023-09-14T08:52:08.901Z,10.65
2023-09-14T08:55:17.072Z,8.65
2023-09-14T08:58:22.594Z,8.08
2023-09-14T09:01:30.962Z,10.50
2023-09-14T09:04:38.623Z,7.37
2023-09-14T09:07:44.363Z,9.53
2023-09-14T09:10:50.214Z,13.80
2023-09-14T09:14:00.354Z,10.50
2023-09-14T09:17:06.339Z,9.28
2023-09-14T09:20:12.901Z,8.45
2023-09-14T09:23:19.532Z,27.73
2023-09-14T09:26:25.676Z,15.08
2023-09-14T09:29:37.013Z,11.57
2023-09-14T09:32:44.015Z,11.33
2023-09-14T09:35:52.010Z,10.93
2023-09-14T09:38:57.664Z,9.75
2023-09-14T09:42:02.408Z,11.25
2023-09-14T09:45:12.541Z,13.20
2023-09-14T09:48:19.335Z,10.75
2023-09-14T09:51:25.161Z,11.18
2023-09-14T09:54:36.819Z,11.48
2023-09-14T10:00:52.650Z,9.35
2023-09-14T10:04:01.842Z,9.20
2023-09-14T10:07:10.593Z,10.58
2023-09-14T10:10:17.139Z,11.63
2023-09-14T10:13:24.730Z,9.68
2023-09-14T10:16:33.330Z,10.75
2023-09-14T10:19:41.624Z,10.90
2023-09-14T10:22:49.623Z,14.80
2023-09-14T10:25:56.929Z,9.55
2023-09-14T10:29:04.724Z,13.80
2023-09-14T10:32:14.803Z,10.55
2023-09-14T10:35:22.631Z,7.45
2023-09-14T10:38:30.074Z,9.58
2023-09-14T10:41:35.520Z,11.73
2023-09-14T10:44:43.675Z,11.05
2023-09-14T10:47:49.853Z,11.83
2023-09-14T10:50:56.080Z,13.13
2023-09-14T10:54:02.863Z,12.75
2023-09-14T10:57:16.349Z,10.40
2023-09-14T11:00:26.096Z,11.18
2023-09-14T11:03:33.484Z,11.95
2023-09-14T11:07:06.165Z,10.08
2023-09-14T11:10:21.449Z,12.50
2023-09-14T11:13:40.808Z,10.48
2023-09-14T11:17:02.939Z,18.50
2023-09-14T11:20:09.886Z,12.07
2023-09-14T11:23:18.114Z,9.98
2023-09-14T11:26:26.041Z,13.43
2023-09-14T11:29:34.568Z,8.58
2023-09-14T11:32:44.725Z,11.40
2023-09-14T11:35:56.972Z,11.90
2023-09-14T11:39:08.581Z,8.88
2023-09-14T11:42:15.792Z,11.18
2023-09-14T11:45:24.574Z,11.35
2023-09-14T11:51:39.284Z,11.03
2023-09-14T11:54:47.368Z,11.15
2023-09-14T11:57:55.810Z,10.50
2023-09-14T12:01:05.605Z,13.62
2023-09-14T12:04:13.552Z,12.58
2023-09-14T12:07:19.989Z,13.25
2023-09-14T12:10:35.454Z,16.57
2023-09-14T12:13:41.463Z,12.15
2023-09-14T12:16:46.863Z,14.28
2023-09-14T12:20:03.952Z,18.10
2023-09-14T12:23:08.799Z,9.43
2023-09-14T12:26:15.282Z,13.65
2023-09-14T12:29:20.910Z,13.65
2023-09-14T12:32:27.878Z,12.43
2023-09-14T12:35:33.380Z,10.38
2023-09-14T12:38:47.178Z,13.90
2023-09-14T12:41:48.424Z,12.20
2023-09-14T12:44:54.141Z,14.23
2023-09-14T12:48:04.229Z,16.25
2023-09-14T12:51:10.402Z,12.03
2023-09-14T12:54:18.282Z,13.75
2023-09-14T12:57:31.144Z,12.55
2023-09-14T13:00:44.769Z,11.80
2023-09-14T13:03:51.979Z,9.68
2023-09-14T13:06:58.320Z,22.82
2023-09-14T13:10:04.493Z,11.45
2023-09-14T13:13:32.175Z,13.43
2023-09-14T13:16:38.617Z,15.15
2023-09-14T13:19:46.602Z,10.85
2023-09-14T13:22:53.580Z,10.55
2023-09-14T13:25:58.652Z,15.45
2023-09-14T13:29:06.169Z,10.78
2023-09-14T13:32:12.199Z,11.40
2023-09-14T13:35:21.553Z,18.32
2023-09-14T13:38:25.755Z,17.37
2023-09-14T13:41:32.212Z,13.50
2023-09-14T13:44:38.724Z,17.75
2023-09-14T13:47:44.704Z,9.88
2023-09-14T13:50:50.447Z,17.60
2023-09-14T13:53:58.450Z,16.93
2023-09-14T13:57:04.497Z,18.30
2023-09-14T14:00:13.244Z,21.55
2023-09-14T14:03:28.339Z,13.25
2023-09-14T14:06:35.466Z,15.25
2023-09-14T14:09:44.609Z,17.40
2023-09-14T14:12:51.270Z,15.93
2023-09-14T14:15:58.122Z,16.00
2023-09-14T14:19:04.373Z,14.18
2023-09-14T14:22:10.954Z,13.30
2023-09-14T14:25:16.028Z,14.07
2023-09-14T14:42:29.743Z,12.75
2023-09-14T14:45:37.085Z,11.53
2023-09-14T14:48:46.156Z,11.28
2023-09-14T14:51:52.682Z,17.48
2023-09-14T14:54:58.620Z,12.37
2023-09-14T14:58:04.302Z,14.58
2023-09-14T15:01:10.736Z,15.90
2023-09-14T15:04:17.340Z,11.08
2023-09-14T15:07:25.447Z,11.70
2023-09-14T15:10:29.856Z,12.63
2023-09-14T15:13:35.522Z,15.38
2023-09-14T15:16:43.041Z,16.82
2023-09-14T15:19:51.345Z,22.65
2023-09-14T15:22:57.279Z,17.77
2023-09-14T15:26:04.874Z,16.73
2023-09-14T15:29:10.857Z,15.10
2023-09-14T15:32:16.920Z,23.50
2023-09-14T15:35:25.262Z,20.80
2023-09-14T15:38:31.743Z,18.82
2023-09-14T15:41:39.203Z,17.82
2023-09-14T15:44:47.808Z,21.12
2023-09-14T15:47:52.503Z,18.40
2023-09-14T15:50:58.326Z,14.15
2023-09-14T15:54:04.878Z,13.98
2023-09-14T15:57:12.024Z,16.32
2023-09-14T16:00:19.750Z,16.45
2023-09-14T16:03:27.718Z,17.05
2023-09-14T16:06:35.438Z,40.20
2023-09-14T16:09:41.536Z,86.00
2023-09-14T16:12:50.383Z,71.35
2023-09-14T16:16:01.605Z,41.73
2023-09-14T16:19:07.836Z,25.30
2023-09-14T16:22:16.023Z,19.50
2023-09-14T16:25:22.324Z,19.12
2023-09-14T16:28:31.003Z,23.02
2023-09-14T16:31:41.909Z,17.25
2023-09-14T16:34:47.434Z,17.67
2023-09-14T16:37:54.090Z,21.05
2023-09-14T16:41:08.491Z,18.60
2023-09-14T16:44:14.471Z,18.80
2023-09-14T16:47:19.740Z,26.07
2023-09-14T16:50:24.565Z,18.73
2023-09-14T16:53:31.195Z,22.07
2023-09-14T16:56:37.393Z,22.73
2023-09-14T16:59:44.617Z,25.95
2023-09-14T17:02:50.111Z,26.25
2023-09-14T17:05:57.114Z,23.60
2023-09-14T17:09:04.784Z,27.95
2023-09-14T17:12:12.006Z,28.02
2023-09-14T17:15:16.966Z,22.35
2023-09-14T17:18:24.570Z,54.55
2023-09-14T17:21:31.917Z,41.05
2023-09-14T17:24:37.221Z,30.82
2023-09-14T17:27:43.458Z,36.45
2023-09-14T17:30:50.930Z,35.45
2023-09-14T17:33:58.395Z,29.70
2023-09-14T17:37:06.678Z,36.88
2023-09-14T17:40:15.950Z,30.10
2023-09-14T17:43:23.248Z,28.62
2023-09-14T17:46:30.726Z,30.82
2023-09-14T17:49:38.695Z,27.05
2023-09-14T17:52:45.065Z,28.10
2023-09-14T17:55:50.401Z,27.98
2023-09-14T17:58:59.637Z,28.47
2023-09-14T18:02:07.587Z,44.35
2023-09-14T18:05:16.177Z,36.88
2023-09-14T18:08:21.913Z,46.25
2023-09-14T18:11:32.385Z,39.95
2023-09-14T18:14:38.810Z,32.28
2023-09-14T18:17:46.699Z,30.77
2023-09-14T18:20:52.861Z,38.05
2023-09-14T18:24:00.633Z,33.23
2023-09-14T18:27:07.127Z,33.88
2023-09-14T18:30:14.221Z,39.45
2023-09-14T18:33:21.971Z,36.55
2023-09-14T18:36:28.972Z,36.30
2023-09-14T18:39:36.136Z,40.20
2023-09-14T18:42:42.090Z,39.90
2023-09-14T18:45:51.113Z,36.42
2023-09-14T18:49:00.133Z,40.15
2023-09-14T18:52:06.039Z,31.23
2023-09-14T18:55:14.133Z,34.43
2023-09-14T18:58:44.115Z,30.45
2023-09-14T19:01:31.133Z,27.10
2023-09-14T19:04:37.835Z,28.40
2023-09-14T19:07:45.545Z,24.52
2023-09-14T19:10:51.603Z,26.60
2023-09-14T19:13:58.076Z,22.62
2023-09-14T19:17:04.501Z,26.62
2023-09-14T19:20:13.911Z,25.32
2023-09-14T19:23:20.923Z,22.67
2023-09-14T19:26:27.968Z,22.98
2023-09-14T19:29:33.920Z,20.75
2023-09-14T19:32:40.653Z,20.37
2023-09-14T19:35:46.380Z,22.17
2023-09-14T19:38:53.324Z,20.45
2023-09-14T19:42:03.002Z,22.00
2023-09-14T19:45:08.950Z,21.25
2023-09-14T19:48:15.360Z,31.90
2023-09-14T19:51:21.163Z,56.83
2023-09-14T19:54:27.834Z,63.95
2023-09-14T19:57:33.622Z,106.12
2023-09-14T20:00:39.839Z,136.82
2023-09-14T20:03:49.297Z,116.47
2023-09-14T20:06:56.623Z,108.30
2023-09-14T20:10:02.247Z,72.65
2023-09-14T20:13:08.277Z,65.92
2023-09-14T20:16:13.738Z,56.42
2023-09-14T20:19:21.670Z,47.85
2023-09-14T20:22:29.653Z,38.67
2023-09-14T20:25:37.763Z,26.27
2023-09-14T20:28:45.746Z,25.00
2023-09-14T20:31:51.124Z,21.80
2023-09-14T20:34:56.703Z,22.48
2023-09-14T20:38:03.956Z,18.77
2023-09-14T20:41:11.858Z,19.75
2023-09-14T20:44:17.712Z,19.85
2023-09-14T20:47:25.543Z,13.83
2023-09-14T20:50:31.982Z,12.50
2023-09-14T20:53:40.103Z,21.07
2023-09-14T20:56:48.811Z,21.25
2023-09-14T20:59:55.711Z,22.02
2023-09-14T21:03:01.984Z,20.82
2023-09-14T21:06:17.467Z,16.67
2023-09-14T21:09:24.319Z,13.70
2023-09-14T21:12:29.898Z,17.30
2023-09-14T21:15:38.078Z,24.87
2023-09-14T21:18:43.895Z,21.85
2023-09-14T21:21:50.199Z,16.23
2023-09-14T21:24:55.924Z,19.35
2023-09-14T21:28:02.581Z,19.23
2023-09-14T21:31:04.817Z,21.15
2023-09-14T21:34:10.404Z,16.07
2023-09-14T21:37:17.457Z,21.57
2023-09-14T21:40:25.152Z,19.75
2023-09-14T21:43:30.892Z,21.40
2023-09-14T21:46:36.985Z,17.15
2023-09-14T21:49:58.611Z,20.25
2023-09-14T21:53:06.238Z,18.02
2023-09-14T21:56:12.259Z,15.40
2023-09-14T21:59:18.719Z,16.87
2023-09-14T22:02:24.166Z,17.90
2023-09-14T22:05:32.482Z,21.60
2023-09-14T22:08:38.563Z,19.67
2023-09-14T22:11:43.791Z,15.20
2023-09-14T22:14:49.857Z,16.50
2023-09-14T22:17:56.333Z,22.58
2023-09-14T22:21:02.602Z,18.82
2023-09-14T22:24:11.106Z,18.80
2023-09-14T22:27:16.550Z,16.65
2023-09-14T22:30:25.401Z,18.10
2023-09-14T22:33:32.556Z,16.20
2023-09-14T22:36:37.898Z,21.95
2023-09-14T22:39:43.967Z,15.03
2023-09-14T22:42:49.611Z,19.55
2023-09-14T22:45:55.413Z,15.18
2023-09-14T22:49:01.783Z,19.55
2023-09-14T22:52:08.076Z,22.77
2023-09-14T22:55:18.063Z,16.62
2023-09-14T22:58:24.231Z,21.42
2023-09-14T23:01:32.545Z,21.65
2023-09-14T23:04:39.623Z,18.45
2023-09-14T23:07:47.215Z,23.32
2023-09-14T23:10:54.519Z,19.60
2023-09-14T23:14:00.393Z,21.73
2023-09-14T23:17:06.835Z,20.02
2023-09-14T23:20:33.541Z,16.37
2023-09-14T23:23:34.103Z,21.07
2023-09-14T23:26:42.908Z,22.15
2023-09-14T23:29:48.794Z,19.15
2023-09-14T23:32:56.106Z,22.62
2023-09-14T23:36:02.451Z,24.70
2023-09-14T23:39:07.591Z,20.62
2023-09-14T23:42:15.694Z,21.65
2023-09-14T23:45:22.684Z,23.87
2023-09-14T23:48:29.121Z,20.77
2023-09-14T23:51:35.835Z,15.93
2023-09-14T23:54:41.755Z,20.55
2023-09-14T23:57:48.104Z,23.67
